Weather History for KTCM - January, 2014

Change the Weather History Date:

Sunday, January 12, 2014

  Actual Average Record
Temperature  
Mean Temperature 44 °F -  
Max Temperature 50 °F 43 °F 55 °F (1983)
Min Temperature 39 °F 32 °F 14 °F (2007)
Degree Days  
Heating Degree Days 20    
Moisture  
Dew Point 45 °F    
Average Humidity 97    
Maximum Humidity 100    
Minimum Humidity 73    
Precipitation  
Precipitation 0.12 in - - ()
Sea Level Pressure  
Sea Level Pressure 30.15 in    
Wind  
Wind Speed 16 mph (SSW)    
Max Wind Speed 26 mph    
Max Gust Speed 37 mph    
Visibility 9 miles    
Events Rain    
Averages and records for this station are not official NWS values.
T = Trace of Precipitation, MM = Missing Value Source: NWS Daily Summary

Daily Weather History Graph

Daily Weather History Graph

Search for Another Location

Airport or City:

Trip Planner

Search our weather history database for the weather conditions in past years. The results will help you decide how hot, cold, wet, or windy it might be!

Date:

Astronomy

Jan. 12, 2014 Rise Set
Actual Time 7:53 AM PST 4:43 PM PST
Civil Twilight 7:18 AM PST 5:18 PM PST
Nautical Twilight 6:40 AM PST 5:56 PM PST
Astronomical Twilight 6:03 AM PST 6:33 PM PST
Moon 2:17 PM PST (1/12) 4:55 AM PST (1/12)
Length of Visible Light 9h 59m
Length of Day
8h 50m
Waxing Gibbous, 90% of the Moon is Illuminated
Jan 12
Waxing Gibbous
Jan 15
Full
Jan 23
Last Quarter
Jan 30
New
Feb 6
First Quarter

Hourly Weather History & Observations

Time (PST) Temp. Windchill Dew Point Humidity Pressure Visibility Wind Dir Wind Speed Gust Speed Precip Events Conditions
12:58 AM 44.4 °F 35.1 °F 36.1 °F 73% 29.90 in 10.0 mi SW 26.5 mph 36.8 mph N/A   Overcast
1:58 AM 43.9 °F 35.7 °F 36.7 °F 76% 29.96 in 10.0 mi SW 19.6 mph 31.1 mph N/A   Mostly Cloudy
2:58 AM 44.1 °F 36.8 °F 36.9 °F 76% 30.01 in 10.0 mi SW 16.1 mph 25.3 mph N/A   Mostly Cloudy
3:13 AM 44.6 °F 38.4 °F 37.4 °F 76% 29.99 in 10.0 mi SSW 12.7 mph - N/A   Mostly Cloudy
3:18 AM 44.6 °F 38.4 °F 37.4 °F 76% 29.99 in 10.0 mi South 12.7 mph - N/A   Mostly Cloudy
3:28 AM 42.8 °F 36.2 °F 39.2 °F 87% 30.00 in 10.0 mi SSW 12.7 mph - N/A   Overcast
3:32 AM 42.8 °F 35.8 °F 39.2 °F 87% 30.01 in 10.0 mi SSW 13.8 mph - N/A   Overcast
3:43 AM 42.8 °F 35.8 °F 39.2 °F 87% 30.01 in 10.0 mi SSW 13.8 mph - N/A   Overcast
3:58 AM 43.0 °F 35.4 °F 39.4 °F 87% 30.03 in 10.0 mi SSW 16.1 mph - 0.00 in   Mostly Cloudy
4:03 AM 42.8 °F 35.1 °F 39.2 °F 87% 30.01 in 10.0 mi South 16.1 mph - N/A   Mostly Cloudy
4:08 AM 42.8 °F 35.1 °F 39.2 °F 87% 30.01 in 10.0 mi SSW 16.1 mph - N/A   Mostly Cloudy
4:58 AM 43.2 °F 35.9 °F 39.0 °F 85% 30.05 in 10.0 mi SSW 15.0 mph - N/A   Mostly Cloudy
5:36 AM 42.8 °F 35.8 °F 39.2 °F 87% 30.05 in 10.0 mi SSW 13.8 mph - N/A   Mostly Cloudy
5:58 AM 42.4 °F 36.5 °F 40.6 °F 93% 30.07 in 10.0 mi South 10.4 mph - 0.00 in Rain Light Rain
6:03 AM 42.8 °F 37.5 °F 41.0 °F 93% 30.05 in 10.0 mi South 9.2 mph - N/A Rain Light Rain
6:08 AM 42.8 °F 37.0 °F 41.0 °F 93% 30.06 in 10.0 mi South 10.4 mph - N/A Rain Light Rain
6:23 AM 41.0 °F 34.3 °F 41.0 °F 100% 30.06 in 10.0 mi South 11.5 mph - N/A Rain Light Rain
6:33 AM 41.0 °F 33.5 °F 41.0 °F 100% 30.06 in 10.0 mi South 13.8 mph - N/A Rain Light Rain
6:38 AM 41.0 °F 34.7 °F 41.0 °F 100% 30.06 in 10.0 mi South 10.4 mph - N/A Rain Light Rain
6:58 AM 41.0 °F 33.1 °F 41.0 °F 100% 30.08 in 10.0 mi South 15.0 mph - 0.02 in Rain Light Rain
7:08 AM 41.0 °F 33.5 °F 41.0 °F 100% 30.05 in 10.0 mi SSW 13.8 mph 23.0 mph N/A Rain Light Rain
7:13 AM 41.0 °F 33.5 °F 41.0 °F 100% 30.05 in 10.0 mi South 13.8 mph 23.0 mph N/A   Overcast
7:58 AM 39.9 °F 35.1 °F 39.7 °F 99% 30.08 in 9.0 mi SSE 6.9 mph - 0.03 in Rain Light Rain
8:53 AM 39.2 °F 35.0 °F 39.2 °F 100% 30.06 in 10.0 mi SSE 5.8 mph - N/A   Overcast
8:58 AM 39.9 °F 35.8 °F 39.7 °F 99% 30.08 in 10.0 mi SSE 5.8 mph - 0.02 in   Overcast
9:09 AM 41.0 °F 35.8 °F 39.2 °F 93% 30.06 in 10.0 mi SSE 8.1 mph - N/A Rain Light Rain
9:22 AM 41.0 °F 34.7 °F 39.2 °F 93% 30.06 in 10.0 mi South 10.4 mph - N/A   Overcast
9:27 AM 41.0 °F 34.7 °F 41.0 °F 100% 30.06 in 10.0 mi South 10.4 mph - N/A   Overcast
9:58 AM 41.4 °F 35.7 °F 41.2 °F 99% 30.10 in 10.0 mi SSE 9.2 mph - 0.00 in   Overcast
10:08 AM 41.0 °F 34.7 °F 41.0 °F 100% 30.09 in 10.0 mi South 10.4 mph - N/A   Overcast
10:13 AM 42.8 °F 36.2 °F 42.8 °F 100% 30.09 in 10.0 mi South 12.7 mph - N/A   Overcast
10:23 AM 42.8 °F 35.4 °F 42.8 °F 100% 30.09 in 10.0 mi South 15.0 mph - N/A   Overcast
10:27 AM 42.8 °F 35.1 °F 42.8 °F 100% 30.09 in 9.0 mi South 16.1 mph - N/A Rain Light Rain
10:32 AM 42.8 °F 35.1 °F 42.8 °F 100% 30.10 in 8.0 mi South 16.1 mph - N/A Rain Light Rain
10:37 AM 44.6 °F 37.4 °F 44.6 °F 100% 30.09 in 8.0 mi South 16.1 mph - N/A   Overcast
10:40 AM 44.6 °F 37.2 °F 44.6 °F 100% 30.09 in 8.0 mi South 17.3 mph - N/A Rain Light Rain
10:45 AM 44.6 °F 37.2 °F 44.6 °F 100% 30.10 in 8.0 mi SSW 17.3 mph - N/A Rain Light Rain
10:48 AM 44.6 °F 38.1 °F 44.6 °F 100% 30.10 in 9.0 mi SSW 13.8 mph - N/A Rain Light Rain
10:50 AM 44.6 °F 37.8 °F 44.6 °F 100% 30.11 in 10.0 mi South 15.0 mph - N/A   Overcast
10:58 AM 44.8 °F 38.0 °F 44.4 °F 99% 30.13 in 10.0 mi South 15.0 mph 21.9 mph 0.00 in   Overcast
11:03 AM 44.6 °F 38.1 °F 44.6 °F 100% 30.10 in 10.0 mi South 13.8 mph 21.9 mph N/A   Overcast
11:08 AM 44.6 °F 37.4 °F 44.6 °F 100% 30.10 in 10.0 mi South 16.1 mph 21.9 mph N/A   Overcast
11:58 AM 46.4 °F 39.2 °F 46.4 °F 100% 30.13 in 10.0 mi SSW 18.4 mph - N/A   Overcast
12:03 PM 46.4 °F 39.2 °F 46.4 °F 100% 30.11 in 10.0 mi SSW 18.4 mph - N/A   Overcast
12:23 PM 46.4 °F 39.0 °F 46.4 °F 100% 30.11 in 10.0 mi SSW 19.6 mph 26.5 mph N/A   Overcast
12:28 PM 46.4 °F 40.1 °F 46.4 °F 100% 30.11 in 10.0 mi SSW 15.0 mph - N/A   Overcast
12:33 PM 46.4 °F 39.8 °F 46.4 °F 100% 30.11 in 10.0 mi SSW 16.1 mph - N/A   Overcast
12:57 PM 46.4 °F 40.1 °F 46.4 °F 100% 30.12 in 10.0 mi SSW 15.0 mph - N/A Rain Light Rain
12:58 PM 46.4 °F 40.1 °F 46.4 °F 100% 30.14 in 10.0 mi SSW 15.0 mph - N/A Rain Light Rain
1:13 PM 46.4 °F 40.1 °F 46.4 °F 100% 30.12 in 7.0 mi South 15.0 mph - N/A Rain Light Rain
1:17 PM 46.4 °F 40.4 °F 46.4 °F 100% 30.12 in 5.0 mi South 13.8 mph - N/A Rain Light Rain
1:21 PM 46.4 °F 40.1 °F 46.4 °F 100% 30.12 in 4.0 mi SSW 15.0 mph - N/A   Overcast
1:24 PM 46.4 °F 39.8 °F 46.4 °F 100% 30.12 in 5.0 mi South 16.1 mph - N/A Rain Light Rain
1:34 PM 46.4 °F 40.1 °F 46.4 °F 100% 30.12 in 7.0 mi South 15.0 mph - N/A Rain Light Rain
1:39 PM 46.4 °F 39.5 °F 46.4 °F 100% 30.12 in 5.0 mi South 17.3 mph - N/A Rain Light Rain
1:40 PM 46.4 °F 39.2 °F 46.4 °F 100% 30.12 in 5.0 mi South 18.4 mph - N/A   Overcast
1:41 PM 46.4 °F 39.2 °F 46.4 °F 100% 30.12 in 5.0 mi South 18.4 mph 24.2 mph N/A Rain Light Rain
1:46 PM 46.4 °F 39.8 °F 46.4 °F 100% 30.12 in 5.0 mi SSW 16.1 mph 24.2 mph N/A Rain Light Rain
1:51 PM 46.4 °F 39.5 °F 46.4 °F 100% 30.12 in 9.0 mi South 17.3 mph - N/A Rain Light Rain
1:53 PM 48.2 °F - 46.4 °F 93% 30.12 in 10.0 mi South 16.1 mph - N/A   Overcast
1:58 PM 47.3 °F - 47.1 °F 99% 30.14 in 10.0 mi SSW 15.0 mph - 0.02 in   Overcast
2:03 PM 48.2 °F - 46.4 °F 93% 30.12 in 10.0 mi SSW 16.1 mph - N/A   Overcast
2:13 PM 48.2 °F - 48.2 °F 100% 30.12 in 10.0 mi SSW 15.0 mph - N/A   Overcast
2:18 PM 48.2 °F - 48.2 °F 100% 30.12 in 10.0 mi South 15.0 mph - N/A   Overcast
2:23 PM 48.2 °F - 48.2 °F 100% 30.13 in 10.0 mi South 15.0 mph - N/A   Overcast
2:38 PM 48.2 °F - 48.2 °F 100% 30.14 in 10.0 mi South 16.1 mph 23.0 mph N/A   Overcast
2:50 PM 48.2 °F - 48.2 °F 100% 30.14 in 9.0 mi SSW 13.8 mph 21.9 mph N/A Rain Light Rain
2:58 PM 48.2 °F - 48.0 °F 99% 30.16 in 9.0 mi South 17.3 mph - 0.00 in Rain Light Rain
3:02 PM 48.2 °F - 48.2 °F 100% 30.15 in 10.0 mi South 18.4 mph - N/A   Overcast
3:24 PM 48.2 °F - 48.2 °F 100% 30.16 in 10.0 mi SSW 15.0 mph 24.2 mph N/A Rain Light Rain
3:34 PM 48.2 °F - 48.2 °F 100% 30.17 in 9.0 mi SSW 12.7 mph - N/A Rain Light Rain
3:43 PM 48.2 °F - 48.2 °F 100% 30.17 in 6.0 mi SSW 16.1 mph 21.9 mph N/A   Overcast
3:45 PM 48.2 °F - 48.2 °F 100% 30.17 in 7.0 mi SSW 15.0 mph 21.9 mph N/A Rain Light Rain
3:55 PM 48.2 °F - 48.2 °F 100% 30.17 in 8.0 mi SSW 18.4 mph 23.0 mph N/A Rain Light Rain
3:58 PM 48.7 °F - 48.4 °F 99% 30.19 in 7.0 mi South 16.1 mph 23.0 mph 0.01 in Rain Light Rain
4:02 PM 48.2 °F - 48.2 °F 100% 30.16 in 5.0 mi South 18.4 mph 23.0 mph N/A Rain Light Rain
4:07 PM 48.2 °F - 48.2 °F 100% 30.15 in 6.0 mi South 19.6 mph - N/A Rain Light Rain
4:16 PM 48.2 °F - 48.2 °F 100% 30.16 in 10.0 mi SSW 16.1 mph - N/A   Overcast
4:20 PM 48.2 °F - 48.2 °F 100% 30.17 in 9.0 mi SSW 16.1 mph 24.2 mph N/A Rain Light Rain
4:30 PM 48.2 °F - 48.2 °F 100% 30.18 in 8.0 mi SSW 16.1 mph - N/A Rain Light Rain
4:35 PM 48.2 °F - 48.2 °F 100% 30.19 in 10.0 mi SSW 16.1 mph - N/A Rain Light Rain
4:36 PM 48.2 °F - 48.2 °F 100% 30.18 in 10.0 mi SSW 16.1 mph - N/A   Overcast
4:41 PM 50.0 °F - 48.2 °F 94% 30.18 in 10.0 mi SSW 15.0 mph - N/A   Overcast
4:46 PM 50.0 °F - 48.2 °F 94% 30.19 in 10.0 mi SSW 15.0 mph - N/A   Overcast
4:51 PM 50.0 °F - 48.2 °F 94% 30.19 in 10.0 mi SSW 12.7 mph - N/A   Overcast
4:56 PM 50.0 °F - 48.2 °F 94% 30.19 in 10.0 mi SSW 15.0 mph - N/A   Overcast
4:58 PM 50.0 °F - 48.2 °F 94% 30.21 in 10.0 mi SSW 17.3 mph 23.0 mph 0.01 in   Overcast
5:53 PM 50.0 °F - 50.0 °F 100% 30.22 in 8.0 mi SW 16.1 mph 24.2 mph N/A   Overcast
5:54 PM 50.0 °F - 48.2 °F 94% 30.22 in 8.0 mi SW 15.0 mph 24.2 mph N/A Rain Light Rain
5:58 PM 49.3 °F - 48.9 °F 99% 30.24 in 8.0 mi SW 16.1 mph 24.2 mph 0.00 in Rain Light Rain
6:02 PM 50.0 °F - 48.2 °F 94% 30.22 in 10.0 mi SW 15.0 mph 24.2 mph N/A   Overcast
6:07 PM 50.0 °F - 48.2 °F 94% 30.22 in 10.0 mi SSW 16.1 mph - N/A   Overcast
6:12 PM 50.0 °F - 48.2 °F 94% 30.23 in 10.0 mi SSW 12.7 mph - N/A   Overcast
6:17 PM 50.0 °F - 48.2 °F 94% 30.23 in 10.0 mi SW 13.8 mph - N/A Rain Light Rain
6:22 PM 48.2 °F - 48.2 °F 100% 30.23 in 9.0 mi SSW 15.0 mph 19.6 mph N/A Rain Light Rain
6:27 PM 48.2 °F - 48.2 °F 100% 30.23 in 8.0 mi SSW 11.5 mph 19.6 mph N/A Rain Light Rain
6:37 PM 48.2 °F - 48.2 °F 100% 30.23 in 10.0 mi South 12.7 mph - N/A Rain Light Rain
6:47 PM 48.2 °F - 48.2 °F 100% 30.23 in 10.0 mi South 11.5 mph - N/A   Overcast
6:57 PM 48.2 °F - 48.2 °F 100% 30.23 in 10.0 mi SSW 12.7 mph - N/A   Overcast
6:58 PM 48.2 °F - 48.2 °F 100% 30.25 in 10.0 mi SSW 12.7 mph - 0.00 in   Overcast
7:03 PM 48.2 °F - 48.2 °F 100% 30.24 in 10.0 mi South 12.7 mph - N/A   Overcast
7:08 PM 48.2 °F - 48.2 °F 100% 30.24 in 10.0 mi SSW 12.7 mph - N/A   Overcast
7:18 PM 48.2 °F - 48.2 °F 100% 30.24 in 10.0 mi South 13.8 mph - N/A   Overcast
7:23 PM 48.2 °F - 48.2 °F 100% 30.24 in 10.0 mi South 16.1 mph - N/A   Overcast
7:28 PM 48.2 °F - 48.2 °F 100% 30.24 in 10.0 mi SSW 12.7 mph 23.0 mph N/A   Overcast
7:53 PM 48.2 °F - 48.2 °F 100% 30.25 in 10.0 mi South 15.0 mph - N/A   Overcast
7:58 PM 48.2 °F - 48.2 °F 100% 30.27 in 9.0 mi South 17.3 mph - N/A   Overcast
8:03 PM 48.2 °F - 48.2 °F 100% 30.26 in 9.0 mi South 13.8 mph - N/A   Overcast
8:04 PM 48.2 °F - 48.2 °F 100% 30.26 in 8.0 mi South 13.8 mph - N/A   Light Drizzle
8:23 PM 48.2 °F - 48.2 °F 100% 30.27 in 8.0 mi South 18.4 mph - N/A   Overcast
8:43 PM 48.2 °F - 48.2 °F 100% 30.28 in 10.0 mi South 16.1 mph - N/A   Overcast
8:48 PM 48.2 °F - 48.2 °F 100% 30.28 in 10.0 mi South 16.1 mph - N/A   Overcast
8:53 PM 48.2 °F - 48.2 °F 100% 30.29 in 10.0 mi South 15.0 mph - N/A   Overcast
8:58 PM 48.2 °F - 48.2 °F 100% 30.31 in 10.0 mi South 20.7 mph 24.2 mph 0.00 in   Overcast
9:03 PM 48.2 °F - 48.2 °F 100% 30.29 in 10.0 mi South 15.0 mph 24.2 mph N/A   Overcast
9:08 PM 48.2 °F - 48.2 °F 100% 30.29 in 10.0 mi South 13.8 mph - N/A   Overcast
9:13 PM 48.2 °F - 48.2 °F 100% 30.29 in 10.0 mi South 16.1 mph 23.0 mph N/A   Overcast
9:58 PM 48.0 °F - 47.8 °F 99% 30.33 in 10.0 mi South 16.1 mph - 0.01 in   Overcast
10:13 PM 48.2 °F - 48.2 °F 100% 30.32 in 10.0 mi SSW 13.8 mph - N/A   Overcast
10:58 PM 48.0 °F - 47.8 °F 99% 30.36 in 10.0 mi SSW 19.6 mph 26.5 mph N/A   Mostly Cloudy
11:03 PM 48.2 °F - 48.2 °F 100% 30.34 in 9.0 mi SSW 17.3 mph 25.3 mph N/A   Overcast
11:23 PM 48.2 °F - 48.2 °F 100% 30.35 in 10.0 mi SSW 15.0 mph 23.0 mph N/A   Mostly Cloudy
11:28 PM 48.2 °F - 48.2 °F 100% 30.35 in 10.0 mi SSW 13.8 mph 23.0 mph N/A   Mostly Cloudy
11:48 PM 48.2 °F - 48.2 °F 100% 30.36 in 10.0 mi SSW 17.3 mph 25.3 mph N/A   Overcast
11:58 PM 48.2 °F - 47.8 °F 99% 30.38 in 10.0 mi SSW 17.3 mph 24.2 mph N/A   Overcast